Flight Track Log - Related Links

Times and Time Zones

All times are in EST time to prevent confusion due to time zone crossing. See the N312BL flight status page for this flight to view local times or setup timezone preferences in your user account.

Time Position Orientation Groundspeed Altitude Reporting Facility
EST Latitude Longitude Course Direction KTS MPH feet Rate Location/Type
Fri 01:38:47 PM 41.5011 -73.1522 143° Southeast 140 161 2,300  Level Boston Center
Fri 01:39:48 PM 41.4489 -73.1697 194° South 258 297 3,100 1,452 Climbing Boston Center
Fri 01:40:51 PM 41.3708 -73.1311 160° South 275 316 5,300 2,170 Climbing Boston Center
Fri 01:41:22 PM 41.3333 -73.0833 136° Southeast 282 325 6,500 1,615 Climbing New York TRACON
Fri 01:43:53 PM 41.1983 -72.9108 136° Southeast 312 359 10,200 1,791 Climbing Boston Center
Fri 01:44:00 PM 41.1928 -73.4550 143° Southeast  Level Estimated
Fri 01:44:53 PM 41.1250 -72.8572 151° Southeast 301 346 12,800  Level Boston Center
Fri 01:45:57 PM 41.0381 -72.8561 179° South 264 304 16,100 2,661 Climbing Boston Center
Fri 01:46:57 PM 40.9825 -72.8994 210° Southwest 236 272 18,300 2,182 Climbing Boston Center
Fri 01:47:58 PM 40.9331 -72.9467 216° Southwest 228 262 20,500 2,033 Climbing Boston Center
Fri 01:48:58 PM 40.8800 -72.9944 214° Southwest 229 264 22,400 1,902 Climbing Boston Center
Fri 01:50:01 PM 40.8247 -73.0442 214° Southwest 240 276 24,400 1,887 Climbing Boston Center
Fri 01:51:02 PM 40.7719 -73.0928 215° Southwest 236 272 26,300 1,178 Climbing Boston Center
Fri 01:56:28 PM 40.4960 -73.3440 215° Southwest 100 115 32,000 929 Climbing FlightAware ADS-B
Fri 01:57:10 PM 40.4560 -73.3830 217° Southwest 252 290 32,000  Level FlightAware ADS-B
Fri 01:57:50 PM 40.4240 -73.4130 216° Southwest 252 290 32,000  Level FlightAware ADS-B
Fri 01:58:15 PM 40.3870 -73.4450 213° Southwest 294 338 32,000  Level FlightAware ADS-B
Fri 01:58:53 PM 40.3430 -73.4510 186° South 294 338 32,000  Level FlightAware ADS-B
Fri 01:59:55 PM 40.2720 -73.4610 186° South 294 338 32,000  Level FlightAware ADS-B
Fri 02:00:57 PM 40.2010 -73.4710 186° South 294 338 32,000  Level FlightAware ADS-B
Fri 02:02:09 PM 40.1180 -73.4820 186° South 294 338 32,000  Level FlightAware ADS-B
Fri 02:02:45 PM 40.0760 -73.4880 186° South 294 338 32,000  Level FlightAware ADS-B
Fri 02:03:22 PM 40.0340 -73.4940 186° South 294 338 32,000  Level FlightAware ADS-B
Fri 02:03:59 PM 39.9910 -73.5000 186° South 294 338 32,000  Level FlightAware ADS-B
Fri 02:04:36 PM 39.9490 -73.5050 185° South 294 338 32,000  Level FlightAware ADS-B
Fri 02:05:12 PM 39.9070 -73.5110 186° South 294 338 32,000  Level FlightAware ADS-B
Fri 02:05:49 PM 39.8650 -73.5170 186° South 294 338 32,000  Level FlightAware ADS-B
Fri 02:06:36 PM 39.8110 -73.5240 186° South 294 338 32,000  Level FlightAware ADS-B
Fri 02:07:12 PM 39.7690 -73.5300 186° South 294 338 32,000  Level FlightAware ADS-B
Fri 02:07:49 PM 39.7270 -73.5360 186° South 294 338 32,000  Level FlightAware ADS-B
Fri 02:08:12 PM 39.7000 -73.5390 185° South 294 338 32,000  Level FlightAware ADS-B
Fri 02:09:17 PM 39.5761 -74.0328 185° South 307 353 32,000  Level Washington Center
Fri 02:10:18 PM 39.5103 -74.0958 216° Southwest 302 348 32,000  Level Washington Center
Fri 02:11:18 PM 39.4464 -74.1592 217° Southwest 302 348 32,000  Level Washington Center
Fri 02:12:18 PM 39.3825 -74.2194 216° Southwest 295 339 32,000  Level Washington Center
Fri 02:13:16 PM 39.3186 -74.2825 217° Southwest 295 339 32,000  Level Washington Center
Fri 02:14:16 PM 39.2569 -74.3453 218° Southwest 295 339 32,000  Level Washington Center
Fri 02:15:17 PM 39.1928 -74.4053 216° Southwest 295 339 32,000  Level Washington Center
Fri 02:16:18 PM 39.1267 -74.4653 215° Southwest 295 339 32,000  Level Washington Center
Fri 02:17:18 PM 39.0606 -74.5278 216° Southwest 295 339 32,000  Level Washington Center
Fri 02:18:16 PM 38.9986 -74.5900 218° Southwest 295 339 32,000  Level Washington Center
Fri 02:19:17 PM 38.9325 -74.6522 216° Southwest 295 339 32,000  Level Washington Center
Fri 02:20:18 PM 38.8661 -74.7119 215° Southwest 295 339 32,000  Level Washington Center
Fri 02:21:16 PM 38.8019 -74.7739 217° Southwest 295 339 32,000  Level Washington Center
Fri 02:22:16 PM 38.7378 -74.8358 217° Southwest 295 339 32,000  Level Washington Center
Fri 02:23:17 PM 38.6736 -74.8922 214° Southwest 295 339 32,000  Level Washington Center
Fri 02:24:18 PM 38.6092 -74.9567 218° Southwest 295 339 32,000  Level Washington Center
Fri 02:25:18 PM 38.5450 -75.0131 215° Southwest 295 339 32,000  Level Washington Center
Fri 02:26:16 PM 38.4806 -75.0772 218° Southwest 295 339 32,000  Level Washington Center
Fri 02:27:17 PM 38.4142 -75.1386 216° Southwest 295 339 32,000  Level Washington Center
Fri 02:28:17 PM 38.3497 -75.2025 218° Southwest 295 339 32,000  Level Washington Center
Fri 02:29:18 PM 38.2894 -75.2769 224° Southwest 295 339 32,000  Level Washington Center
Fri 02:30:16 PM 38.2292 -75.3486 223° Southwest 290 334 32,000  Level Washington Center
Fri 02:31:17 PM 38.1708 -75.4122 221° Southwest 290 334 32,000  Level Washington Center
Fri 02:32:18 PM 38.1106 -75.4756 220° Southwest 290 334 32,000  Level Washington Center
Fri 02:33:18 PM 38.0500 -75.5442 222° Southwest 290 334 32,000  Level Washington Center
Fri 02:34:16 PM 37.9917 -75.6075 221° Southwest 290 334 32,000  Level Washington Center
Fri 02:35:16 PM 37.9333 -75.6786 224° Southwest 290 334 32,000  Level Washington Center
Fri 02:36:16 PM 37.8728 -75.7469 222° Southwest 290 334 32,000  Level Washington Center
Fri 02:37:17 PM 37.8122 -75.8153 222° Southwest 290 334 32,000  Level Washington Center
Fri 02:38:17 PM 37.7536 -75.8808 221° Southwest 290 334 32,000  Level Washington Center
Fri 02:39:18 PM 37.6931 -75.9486 222° Southwest 290 334 32,000  Level Washington Center
Fri 02:41:16 PM 37.5717 -76.0819 221° Southwest 290 334 32,000  Level Washington Center
Fri 02:42:17 PM 37.5108 -76.1469 220° Southwest 290 334 32,000  Level Washington Center
Fri 02:43:18 PM 37.4478 -76.2092 218° Southwest 290 334 32,000  Level Washington Center
Fri 02:44:18 PM 37.3911 -76.2767 223° Southwest 290 334 32,000  Level Washington Center
Fri 02:45:18 PM 37.3303 -76.3442 221° Southwest 290 334 32,000  Level Washington Center
Fri 02:46:16 PM 37.2714 -76.4061 220° Southwest 290 334 32,000  Level Washington Center
Fri 02:47:17 PM 37.2125 -76.4733 222° Southwest 290 334 32,000  Level Washington Center
Fri 02:48:18 PM 37.1517 -76.5353 219° Southwest 290 334 32,000 -50 Level Washington Center
Fri 02:49:16 PM 37.0928 -76.5994 221° Southwest 290 334 31,900 -958 Descending Washington Center
Fri 02:50:17 PM 37.0317 -76.6689 222° Southwest 290 334 30,100 -1,835 Descending Washington Center
Fri 02:51:17 PM 36.9642 -76.7433 221° Southwest 302 348 28,200 -1,884 Descending Washington Center
Fri 02:52:18 PM 36.8947 -76.8178 221° Southwest 321 369 26,300 -1,916 Descending Washington Center
Fri 02:53:16 PM 36.8231 -76.8892 219° Southwest 326 375 24,400 -1,160 Descending Washington Center
Fri 02:54:17 PM 36.7369 -76.9397 205° Southwest 338 389 24,000 -893 Descending Washington Center
Fri 02:55:17 PM 36.6550 -76.9847 204° Southwest 338 389 22,600 -1,563 Descending Washington Center
Fri 02:56:16 PM 36.5728 -77.0456 211° Southwest 338 389 20,900 -1,750 Descending Washington Center
Fri 02:57:17 PM 36.5278 -77.1378 239° Southwest 313 360 19,100 -934 Descending Washington Center
Fri 02:58:18 PM 36.4808 -77.2244 236° Southwest 313 360 19,000 -50 Descending Washington Center
Fri 02:59:18 PM 36.4358 -77.3061 236° Southwest 308 354 19,000  Level Washington Center
Fri 03:00:16 PM 36.3908 -77.3878 236° Southwest 301 346 19,000  Level Washington Center
Fri 03:01:17 PM 36.3458 -77.4694 236° Southwest 301 346 19,000 -344 Level Washington Center
Fri 03:02:18 PM 36.3006 -77.5558 237° Southwest 296 341 18,300 -655 Descending Washington Center
Fri 03:03:16 PM 36.2511 -77.6422 235° Southwest 307 353 17,700 -857 Descending Washington Center
Fri 03:04:17 PM 36.2017 -77.7311 235° Southwest 312 359 16,600 -1,140 Descending Washington Center
Fri 03:05:17 PM 36.1478 -77.8194 233° Southwest 317 365 15,400 -1,140 Descending Washington Center
Fri 03:06:18 PM 36.0983 -77.9081 235° Southwest 317 365 14,300 -1,091 Descending Washington Center
Fri 03:07:18 PM 36.0483 -77.9992 236° Southwest 323 372 13,200 -867 Descending Washington Center
Fri 03:07:48 PM 36.0225 -78.0394 232° Southwest 321 369 13,000 -207 Descending Washington Center
Fri 03:08:16 PM 35.9986 -78.0875 238° Southwest 323 372 13,000  Level Washington Center
Fri 03:09:01 PM 35.9619 -78.1453 232° Southwest 298 343 13,000  Level Washington Center
Fri 03:09:16 PM 35.9575 -78.1606 250° West 309 356 13,000  Level Washington Center
Fri 03:10:02 PM 35.9142 -78.2258 231° Southwest 289 333 13,000  Level Washington Center
Fri 03:10:17 PM 35.9056 -78.2486 245° Southwest 296 341 13,000 -320 Level Washington Center
Fri 03:11:17 PM 35.8556 -78.3317 233° Southwest 296 341 12,600 -453 Descending Washington Center
Fri 03:12:03 PM 35.8164 -78.3994 235° Southwest 305 351 12,200 -590 Descending Washington Center
Fri 03:12:18 PM 35.8078 -78.4169 239° Southwest 302 348 12,000 -1,200 Descending Washington Center
Fri 03:13:03 PM 35.7708 -78.4797 234° Southwest 284 327 11,000 -1,100 Descending Washington Center
Fri 03:13:18 PM 35.7642 -78.4947 241° Southwest 302 348 10,900 -984 Descending Washington Center
Fri 03:14:04 PM 35.7250 -78.5522 230° Southwest 272 313 10,000 -1,034 Descending Washington Center
Fri 03:14:16 PM 35.7206 -78.5725 255° West 296 341 9,900 -904 Descending Washington Center
Fri 03:15:17 PM 35.6792 -78.6400 233° Southwest 284 327 8,900 -934 Descending Washington Center
Fri 03:16:18 PM 35.6353 -78.7175 235° Southwest 284 327 8,000 -893 Descending Washington Center
Fri 03:17:18 PM 35.5917 -78.7925 234° Southwest 284 327 7,100 -900 Descending Washington Center
Fri 03:19:00 PM 35.5082 -78.9197 234° Southwest  Level FlightAware Approximate
Fri 03:26:00 PM 35.2333 -79.3833 239° Southwest  Level FlightAware Approximate
Fri 03:27:00 PM 35.2380 -79.3883 239° Southwest  Level Estimated
Fri 03:28:00 PM 35.2333 -79.3833 239° Southwest  Level FlightAware Approximate

Login

Don't have an account? Register now (free) for customized features, flight alerts, and more!